createdAt,value
2023-03-06T00:01:01.211Z,4.20
2023-03-06T00:04:03.041Z,4.20
2023-03-06T00:07:04.817Z,4.20
2023-03-06T00:10:06.886Z,4.30
2023-03-06T00:13:12.961Z,4.20
2023-03-06T00:16:14.935Z,4.20
2023-03-06T00:19:16.682Z,4.20
2023-03-06T00:22:19.092Z,4.20
2023-03-06T00:25:21.823Z,4.20
2023-03-06T00:28:23.602Z,4.20
2023-03-06T00:31:25.365Z,4.10
2023-03-06T00:34:27.320Z,4.10
2023-03-06T00:37:29.052Z,4.10
2023-03-06T00:40:30.858Z,4.10
2023-03-06T00:43:32.620Z,4.20
2023-03-06T00:46:34.374Z,4.10
2023-03-06T00:49:37.564Z,4.10
2023-03-06T00:52:39.491Z,4.10
2023-03-06T00:55:45.258Z,4.10
2023-03-06T00:58:46.972Z,4.00
2023-03-06T01:01:48.739Z,4.00
2023-03-06T01:04:50.588Z,4.00
2023-03-06T01:07:52.322Z,4.00
2023-03-06T01:10:54.381Z,4.10
2023-03-06T01:13:56.112Z,4.10
2023-03-06T01:16:58.288Z,4.10
2023-03-06T01:20:00.128Z,4.10
2023-03-06T01:23:01.956Z,4.00
2023-03-06T01:26:04.177Z,4.00
2023-03-06T01:29:06.344Z,4.00
2023-03-06T01:32:08.260Z,4.00
2023-03-06T01:35:11.250Z,4.00
2023-03-06T01:38:13.326Z,4.00
2023-03-06T01:41:15.979Z,3.90
2023-03-06T01:44:17.849Z,3.90
2023-03-06T01:47:19.570Z,3.90
2023-03-06T01:50:21.357Z,3.90
2023-03-06T01:53:23.198Z,3.90
2023-03-06T01:56:25.625Z,3.90
2023-03-06T01:59:28.768Z,3.80
2023-03-06T02:02:30.988Z,3.80
2023-03-06T02:05:33.639Z,3.90
2023-03-06T02:08:36.084Z,3.90
2023-03-06T02:11:37.897Z,3.90
2023-03-06T02:14:41.209Z,3.90
2023-03-06T02:17:45.684Z,3.80
2023-03-06T02:20:52.852Z,3.80
2023-03-06T02:24:08.535Z,3.80
2023-03-06T02:27:14.210Z,3.80
2023-03-06T02:30:17.632Z,3.80
2023-03-06T02:33:23.221Z,3.70
2023-03-06T02:36:24.976Z,3.80
2023-03-06T02:39:29.773Z,3.70
2023-03-06T02:42:31.730Z,3.60
2023-03-06T02:45:45.178Z,3.70
2023-03-06T02:48:47.085Z,3.70
2023-03-06T02:51:48.806Z,3.70
2023-03-06T02:54:50.534Z,3.80
2023-03-06T02:57:52.443Z,3.70
2023-03-06T03:00:54.559Z,3.70
2023-03-06T03:03:56.549Z,3.70
2023-03-06T03:06:58.879Z,3.60
2023-03-06T03:10:00.667Z,3.60
2023-03-06T03:13:02.606Z,3.50
2023-03-06T03:16:07.599Z,3.40
2023-03-06T03:19:09.469Z,3.50
2023-03-06T03:22:11.246Z,3.40
2023-03-06T03:25:13.047Z,3.40
2023-03-06T03:28:14.911Z,3.40
2023-03-06T03:31:17.159Z,3.40
2023-03-06T03:34:19.326Z,3.40
2023-03-06T03:37:22.361Z,3.40
2023-03-06T03:40:24.162Z,3.40
2023-03-06T03:43:26.537Z,3.40
2023-03-06T03:46:30.168Z,3.50
2023-03-06T03:49:32.589Z,3.50
2023-03-06T03:52:35.816Z,3.50
2023-03-06T03:55:37.837Z,3.50
2023-03-06T03:58:39.664Z,3.50
2023-03-06T04:01:41.452Z,3.40
2023-03-06T04:04:43.609Z,3.40
2023-03-06T04:07:46.160Z,3.50
2023-03-06T04:10:48.665Z,3.50
2023-03-06T04:13:52.466Z,3.40
2023-03-06T04:16:54.376Z,3.40
2023-03-06T04:19:56.379Z,4.50
2023-03-06T04:22:58.597Z,3.30
2023-03-06T04:26:00.871Z,4.60
2023-03-06T04:29:03.748Z,3.30
2023-03-06T04:32:06.383Z,5.00
2023-03-06T04:35:08.899Z,3.30
2023-03-06T04:38:18.280Z,3.30
2023-03-06T04:41:20.588Z,3.40
2023-03-06T04:44:22.410Z,3.40
2023-03-06T04:47:24.303Z,3.40
2023-03-06T04:50:28.098Z,3.30
2023-03-06T04:53:29.887Z,3.40
2023-03-06T04:56:34.324Z,3.40
2023-03-06T04:59:38.840Z,3.40
2023-03-06T05:02:43.515Z,3.40
2023-03-06T05:05:45.411Z,3.30
2023-03-06T05:08:47.588Z,3.20
2023-03-06T05:11:49.381Z,3.30
2023-03-06T05:14:51.141Z,3.30
2023-03-06T05:17:52.982Z,3.30
2023-03-06T05:20:59.396Z,3.40
2023-03-06T05:24:01.171Z,3.40
2023-03-06T05:27:02.962Z,3.40
2023-03-06T05:30:05.294Z,3.80
2023-03-06T05:33:07.060Z,3.40
2023-03-06T05:36:09.766Z,3.40
2023-03-06T05:39:11.512Z,3.30
2023-03-06T05:42:13.355Z,3.40
2023-03-06T05:45:15.257Z,3.40
2023-03-06T05:48:17.125Z,3.40
2023-03-06T05:51:19.244Z,3.40
2023-03-06T05:54:21.261Z,3.40
2023-03-06T05:57:24.549Z,3.20
2023-03-06T06:00:26.583Z,3.40
2023-03-06T06:03:28.567Z,3.40
2023-03-06T06:06:30.401Z,3.40
2023-03-06T06:09:32.481Z,3.40
2023-03-06T06:12:34.494Z,3.40
2023-03-06T06:15:38.641Z,3.40
2023-03-06T06:18:41.413Z,4.40
2023-03-06T06:21:43.325Z,3.40
2023-03-06T06:24:46.175Z,3.40
2023-03-06T06:27:48.473Z,4.60
2023-03-06T06:30:50.233Z,3.40
2023-03-06T06:33:52.006Z,3.40
2023-03-06T06:36:54.506Z,3.40
2023-03-06T06:39:56.436Z,4.30
2023-03-06T06:42:58.229Z,3.50
2023-03-06T06:46:24.571Z,4.40
2023-03-06T06:49:21.823Z,3.50
2023-03-06T06:52:24.712Z,3.60
2023-03-06T06:55:27.096Z,3.60
2023-03-06T06:58:28.846Z,3.50
2023-03-06T07:01:30.975Z,3.60
2023-03-06T07:04:33.119Z,3.50
2023-03-06T07:07:36.987Z,3.50
2023-03-06T07:10:41.607Z,3.50
2023-03-06T07:13:44.376Z,3.60
2023-03-06T07:16:46.262Z,3.70
2023-03-06T07:19:48.546Z,3.50
2023-03-06T07:22:52.033Z,3.60
2023-03-06T07:25:55.023Z,3.70
2023-03-06T07:28:56.955Z,3.70
2023-03-06T07:31:59.129Z,4.40
2023-03-06T07:35:19.019Z,5.20
2023-03-06T07:38:21.785Z,5.00
2023-03-06T07:41:23.552Z,3.80
2023-03-06T07:44:25.437Z,3.80
2023-03-06T07:47:27.200Z,3.80
2023-03-06T07:50:29.099Z,3.80
2023-03-06T07:53:31.755Z,3.80
2023-03-06T07:56:35.012Z,3.90
2023-03-06T07:59:36.944Z,4.80
2023-03-06T08:02:39.027Z,3.70
2023-03-06T08:05:40.975Z,3.60
2023-03-06T08:08:44.465Z,3.60
2023-03-06T08:11:46.296Z,3.50
2023-03-06T08:14:48.135Z,3.40
2023-03-06T08:17:50.353Z,3.30
2023-03-06T08:21:04.991Z,3.30
2023-03-06T08:24:08.300Z,3.30
2023-03-06T08:27:10.331Z,3.40
2023-03-06T08:30:12.782Z,3.50
2023-03-06T08:33:14.554Z,3.40
2023-03-06T08:36:16.312Z,3.50
2023-03-06T08:39:18.352Z,3.40
2023-03-06T08:42:20.185Z,3.50
2023-03-06T08:45:22.026Z,3.30
2023-03-06T08:48:23.880Z,3.40
2023-03-06T08:51:26.612Z,3.30
2023-03-06T08:54:28.373Z,3.40
2023-03-06T08:57:30.618Z,3.50
2023-03-06T09:00:33.530Z,3.40
2023-03-06T09:03:35.357Z,3.50
2023-03-06T09:06:41.046Z,3.30
2023-03-06T09:09:42.832Z,3.50
2023-03-06T09:12:50.111Z,3.50
2023-03-06T09:15:52.622Z,3.60
2023-03-06T09:18:54.575Z,3.80
2023-03-06T09:21:57.827Z,4.10
2023-03-06T09:25:00.596Z,4.10
2023-03-06T09:28:11.330Z,4.40
2023-03-06T09:31:19.086Z,4.30
2023-03-06T09:34:20.997Z,4.40
2023-03-06T09:37:23.392Z,4.50
2023-03-06T09:40:55.129Z,4.60
2023-03-06T09:44:04.906Z,4.90
2023-03-06T09:47:43.891Z,4.80
2023-03-06T09:50:58.889Z,4.80
2023-03-06T09:54:15.376Z,4.70
2023-03-06T09:57:26.001Z,4.60
2023-03-06T10:00:31.137Z,4.70
2023-03-06T10:03:57.854Z,4.60
2023-03-06T10:07:07.334Z,4.60
2023-03-06T10:10:20.017Z,4.40
2023-03-06T10:13:43.693Z,4.40
2023-03-06T10:16:45.669Z,4.30
2023-03-06T10:19:47.663Z,4.30
2023-03-06T10:23:03.169Z,4.40
2023-03-06T10:26:22.616Z,4.60
2023-03-06T10:29:33.508Z,4.60
2023-03-06T10:32:48.202Z,4.60
2023-03-06T10:35:53.592Z,4.80
2023-03-06T10:38:57.910Z,4.90
2023-03-06T10:41:59.839Z,5.00
2023-03-06T10:45:12.519Z,4.80
2023-03-06T10:48:20.278Z,5.00
2023-03-06T10:51:24.643Z,5.10
2023-03-06T10:54:27.369Z,5.20
2023-03-06T10:57:32.722Z,5.40
2023-03-06T11:00:41.522Z,5.30
2023-03-06T11:03:43.479Z,5.50
2023-03-06T11:06:45.593Z,5.70
2023-03-06T11:10:13.817Z,5.70
2023-03-06T11:13:23.403Z,5.70
2023-03-06T11:16:33.233Z,5.60
2023-03-06T11:19:35.071Z,5.70
2023-03-06T11:22:39.194Z,6.10
2023-03-06T11:25:50.627Z,6.10
2023-03-06T11:29:26.065Z,6.10
2023-03-06T11:32:45.772Z,6.50
2023-03-06T11:35:59.937Z,6.50
2023-03-06T11:39:04.474Z,6.20
2023-03-06T11:42:29.265Z,6.10
2023-03-06T11:45:45.019Z,6.40
2023-03-06T11:48:53.245Z,6.20
2023-03-06T11:51:58.619Z,6.20
2023-03-06T11:55:00.315Z,6.40
2023-03-06T11:58:13.645Z,6.50
2023-03-06T12:01:41.235Z,6.80
2023-03-06T12:05:21.210Z,7.10
2023-03-06T12:08:41.740Z,6.90
2023-03-06T12:12:02.381Z,6.60
2023-03-06T12:15:14.631Z,6.30
2023-03-06T12:18:31.217Z,6.10
2023-03-06T12:21:58.303Z,5.90
2023-03-06T12:25:26.359Z,5.80
2023-03-06T12:28:34.186Z,5.80
2023-03-06T12:31:36.058Z,5.80
2023-03-06T12:35:01.373Z,5.80
2023-03-06T12:38:36.606Z,5.70
2023-03-06T12:41:43.122Z,5.60
2023-03-06T12:45:04.010Z,5.80
2023-03-06T12:48:19.229Z,6.00
2023-03-06T12:51:21.548Z,6.20
2023-03-06T12:54:27.428Z,6.40
2023-03-06T12:57:29.894Z,6.60
2023-03-06T13:00:35.045Z,6.70
2023-03-06T13:03:45.772Z,7.50
2023-03-06T13:07:31.820Z,8.00
2023-03-06T13:10:36.137Z,8.60
2023-03-06T13:13:46.993Z,7.90
2023-03-06T13:16:49.094Z,7.80
2023-03-06T13:20:30.409Z,7.80
2023-03-06T13:23:35.654Z,7.50
2023-03-06T13:26:37.592Z,7.20
2023-03-06T13:29:39.292Z,7.10
2023-03-06T13:32:41.218Z,6.90
2023-03-06T13:35:48.277Z,6.80
2023-03-06T13:38:52.902Z,6.80
2023-03-06T13:42:00.352Z,7.00
2023-03-06T13:45:24.984Z,6.90
2023-03-06T13:48:45.183Z,7.10
2023-03-06T13:51:53.819Z,7.20
2023-03-06T13:55:04.522Z,7.10
2023-03-06T13:58:43.433Z,6.80
2023-03-06T14:02:12.965Z,6.80
2023-03-06T14:05:17.068Z,6.80
2023-03-06T14:08:31.501Z,6.80
2023-03-06T14:11:35.756Z,6.80
2023-03-06T14:14:44.748Z,7.10
2023-03-06T14:18:13.345Z,8.70
2023-03-06T14:21:30.858Z,7.60
2023-03-06T14:24:43.477Z,8.70
2023-03-06T14:27:51.960Z,8.90
2023-03-06T14:30:56.034Z,11.50
2023-03-06T14:34:04.769Z,10.80
2023-03-06T14:37:18.424Z,9.40
2023-03-06T14:40:31.516Z,10.00
2023-03-06T14:43:33.425Z,11.10
2023-03-06T14:46:35.304Z,11.30
2023-03-06T14:49:37.157Z,11.00
2023-03-06T14:52:39.596Z,10.00
2023-03-06T14:55:53.908Z,9.40
2023-03-06T14:59:01.361Z,9.50
2023-03-06T15:02:06.533Z,9.40
2023-03-06T15:05:24.280Z,9.30
2023-03-06T15:08:31.960Z,10.10
2023-03-06T15:11:55.286Z,10.00
2023-03-06T15:15:28.851Z,10.40
2023-03-06T15:18:38.768Z,10.90
2023-03-06T15:21:40.644Z,12.20
2023-03-06T15:24:42.716Z,12.40
2023-03-06T15:28:09.588Z,12.30
2023-03-06T15:31:16.619Z,12.10
2023-03-06T15:34:24.258Z,12.50
2023-03-06T15:37:28.675Z,12.10
2023-03-06T15:40:32.152Z,12.70
2023-03-06T15:43:39.726Z,12.10
2023-03-06T15:46:41.927Z,11.40
2023-03-06T15:49:43.848Z,10.30
2023-03-06T15:52:46.657Z,9.90
2023-03-06T15:55:49.271Z,9.30
2023-03-06T15:58:53.749Z,9.10
2023-03-06T16:01:55.667Z,8.90
2023-03-06T16:04:57.412Z,8.90
2023-03-06T16:07:59.180Z,8.70
2023-03-06T16:11:01.029Z,10.00
2023-03-06T16:14:02.878Z,8.30
2023-03-06T16:17:04.724Z,8.10
2023-03-06T16:20:09.698Z,8.00
2023-03-06T16:23:11.787Z,7.90
2023-03-06T16:26:22.807Z,7.70
2023-03-06T16:29:27.130Z,7.60
2023-03-06T16:32:29.175Z,8.40
2023-03-06T16:35:31.034Z,7.60
2023-03-06T16:38:32.897Z,7.40
2023-03-06T16:41:34.625Z,7.70
2023-03-06T16:44:36.573Z,7.20
2023-03-06T16:47:38.501Z,7.10
2023-03-06T16:50:40.800Z,7.10
2023-03-06T16:53:43.486Z,7.10
2023-03-06T16:56:46.839Z,8.50
2023-03-06T16:59:57.875Z,6.90
2023-03-06T17:03:01.823Z,7.30
2023-03-06T17:06:04.649Z,8.30
2023-03-06T17:09:06.714Z,6.90
2023-03-06T17:12:09.009Z,6.90
2023-03-06T17:15:11.801Z,6.60
2023-03-06T17:18:14.083Z,6.30
2023-03-06T17:21:15.891Z,6.70
2023-03-06T17:24:17.722Z,7.20
2023-03-06T17:27:21.989Z,6.10
2023-03-06T17:30:23.830Z,6.10
2023-03-06T17:33:25.619Z,6.00
2023-03-06T17:36:31.624Z,6.50
2023-03-06T17:39:35.343Z,5.90
2023-03-06T17:42:37.174Z,7.40
2023-03-06T17:45:39.032Z,5.90
2023-03-06T17:48:40.892Z,5.90
2023-03-06T17:51:42.665Z,5.80
2023-03-06T17:54:44.827Z,5.80
2023-03-06T17:57:46.604Z,5.80
2023-03-06T18:00:48.411Z,5.80
2023-03-06T18:03:51.513Z,5.70
2023-03-06T18:06:53.362Z,6.70
2023-03-06T18:09:56.510Z,5.70
2023-03-06T18:12:58.291Z,5.70
2023-03-06T18:16:05.379Z,5.60
2023-03-06T18:19:08.222Z,5.70
2023-03-06T18:22:10.024Z,5.70
2023-03-06T18:25:11.856Z,5.60
2023-03-06T18:28:13.660Z,5.60
2023-03-06T18:31:20.070Z,5.50
2023-03-06T18:34:21.900Z,5.50
2023-03-06T18:37:24.072Z,5.90
2023-03-06T18:40:25.935Z,6.10
2023-03-06T18:43:29.840Z,7.00
2023-03-06T18:46:34.356Z,5.50
2023-03-06T18:49:37.487Z,6.30
2023-03-06T18:52:40.936Z,5.30
2023-03-06T18:55:52.686Z,5.30
2023-03-06T18:58:54.954Z,5.20
2023-03-06T19:01:57.768Z,5.40
2023-03-06T19:05:02.704Z,5.40
2023-03-06T19:08:04.684Z,5.30
2023-03-06T19:11:12.286Z,5.30
2023-03-06T19:14:14.933Z,5.30
2023-03-06T19:17:16.858Z,5.20
2023-03-06T19:20:18.775Z,5.20
2023-03-06T19:23:21.462Z,5.10
2023-03-06T19:26:23.728Z,5.10
2023-03-06T19:29:25.563Z,5.10
2023-03-06T19:32:27.639Z,6.40
2023-03-06T19:35:29.588Z,5.00
2023-03-06T19:38:31.570Z,5.00
2023-03-06T19:41:34.229Z,6.00
2023-03-06T19:44:36.723Z,5.10
2023-03-06T19:47:38.544Z,5.00
2023-03-06T19:50:40.699Z,5.00
2023-03-06T19:53:42.443Z,5.00
2023-03-06T19:56:44.268Z,5.00
2023-03-06T19:59:53.538Z,5.00
2023-03-06T20:02:55.926Z,4.90
2023-03-06T20:05:57.763Z,5.10
2023-03-06T20:09:01.948Z,5.00
2023-03-06T20:12:06.006Z,5.00
2023-03-06T20:15:10.382Z,5.00
2023-03-06T20:18:12.806Z,5.00
2023-03-06T20:21:15.635Z,6.20
2023-03-06T20:24:19.856Z,4.90
2023-03-06T20:27:21.868Z,5.20
2023-03-06T20:30:24.311Z,6.50
2023-03-06T20:33:27.811Z,4.90
2023-03-06T20:36:32.650Z,4.90
2023-03-06T20:39:37.565Z,6.20
2023-03-06T20:42:41.551Z,6.30
2023-03-06T20:45:43.399Z,5.70
2023-03-06T20:48:49.070Z,5.20
2023-03-06T20:51:53.342Z,5.00
2023-03-06T20:54:55.175Z,6.20
2023-03-06T20:57:56.969Z,5.00
2023-03-06T21:01:00.811Z,5.00
2023-03-06T21:04:04.582Z,5.40
2023-03-06T21:07:06.762Z,5.00
2023-03-06T21:10:09.872Z,5.00
2023-03-06T21:13:11.681Z,4.90
2023-03-06T21:16:19.387Z,6.20
2023-03-06T21:19:24.044Z,5.00
2023-03-06T21:22:26.250Z,5.00
2023-03-06T21:25:29.100Z,4.90
2023-03-06T21:28:31.112Z,4.90
2023-03-06T21:31:34.183Z,4.90
2023-03-06T21:34:36.036Z,6.30
2023-03-06T21:37:38.703Z,6.20
2023-03-06T21:40:40.906Z,5.40
2023-03-06T21:43:44.257Z,4.70
2023-03-06T21:46:47.118Z,5.50
2023-03-06T21:49:49.720Z,5.20
2023-03-06T21:52:52.427Z,4.70
2023-03-06T21:55:54.204Z,4.50
2023-03-06T21:58:58.001Z,4.60
2023-03-06T22:01:59.759Z,4.60
2023-03-06T22:05:01.565Z,4.60
2023-03-06T22:08:06.384Z,4.50
2023-03-06T22:11:20.671Z,5.10
2023-03-06T22:14:22.657Z,4.50
2023-03-06T22:17:25.084Z,4.40
2023-03-06T22:20:31.739Z,4.30
2023-03-06T22:23:35.616Z,5.60
2023-03-06T22:26:37.433Z,5.60
2023-03-06T22:29:39.236Z,4.00
2023-03-06T22:32:42.698Z,5.40
2023-03-06T22:35:48.167Z,4.50
2023-03-06T22:38:54.592Z,3.90
2023-03-06T22:41:56.575Z,3.90
2023-03-06T22:44:58.403Z,3.80
2023-03-06T22:48:10.347Z,5.20
2023-03-06T22:51:18.826Z,3.80
2023-03-06T22:54:26.496Z,3.60
2023-03-06T22:57:28.291Z,4.30
2023-03-06T23:00:30.175Z,3.70
2023-03-06T23:03:32.144Z,3.70
2023-03-06T23:06:36.388Z,3.70
2023-03-06T23:09:38.093Z,3.70
2023-03-06T23:12:58.182Z,3.70
2023-03-06T23:16:18.637Z,3.80
2023-03-06T23:19:39.083Z,3.90
2023-03-06T23:22:59.525Z,3.90
2023-03-06T23:26:17.644Z,3.90
2023-03-06T23:29:19.343Z,4.00
2023-03-06T23:32:21.230Z,4.10
2023-03-06T23:35:22.994Z,4.10
2023-03-06T23:38:24.736Z,4.10
2023-03-06T23:41:26.488Z,4.20
2023-03-06T23:44:28.388Z,4.20
2023-03-06T23:47:33.872Z,4.20
2023-03-06T23:50:35.611Z,4.20
2023-03-06T23:53:37.287Z,4.20
2023-03-06T23:56:39.527Z,4.20
2023-03-06T23:59:45.184Z,4.20
